Flight Track Log - Related Links

Times and Time Zones

All times are in EDT time to prevent confusion due to time zone crossing. See the SKW4717 flight status page for this flight to view local times or setup timezone preferences in your user account.

Time Position Orientation Groundspeed Altitude Reporting Facility
EDT Latitude Longitude Course Direction KTS MPH feet Rate Location/Type
Mon 07:16:34 PM 40.8386 -112.0289 258° West 211 243 6,200  Level Salt Lake Center
Mon 07:17:35 PM 40.8617 -112.1139 290° West 244 281 7,700 2,049 Climbing Salt Lake Center
Mon 07:18:37 PM 40.8889 -112.2086 291° West 271 312 10,400 2,585 Climbing Salt Lake Center
Mon 07:19:00 PM 40.8642 -112.4532 261° West  Level FlightAware Approximate
Mon 07:19:38 PM 40.8814 -112.3056 264° West 265 305 13,000  Level Salt Lake Center
Mon 07:20:00 PM 40.8500 -112.5900 270° West  Level FlightAware Approximate
Mon 07:20:40 PM 40.8742 -112.4022 264° West 265 305 14,900  Level Salt Lake Center
Mon 07:21:00 PM 40.8373 -112.7264 258° West  Level FlightAware Approximate
Mon 07:21:41 PM 40.8672 -112.5022 265° West 272 313 17,100  Level Salt Lake Center
Mon 07:22:42 PM 40.8606 -112.6022 265° West 275 316 18,500 1,415 Climbing Salt Lake Center
Mon 07:23:44 PM 40.8525 -112.7053 264° West 284 327 20,000 1,561 Climbing Salt Lake Center
Mon 07:24:45 PM 40.8419 -112.8328 264° West 293 337 21,700 1,463 Climbing Salt Lake Center
Mon 07:25:47 PM 40.8428 -112.9428 271° West 302 348 23,000 1,171 Climbing Salt Lake Center
Mon 07:26:48 PM 40.8422 -113.0500 270° West 295 339 24,100 976 Climbing Salt Lake Center
Mon 07:27:50 PM 40.8439 -113.1622 271° West 305 351 25,000 878 Climbing Salt Lake Center
Mon 07:28:51 PM 40.8436 -113.2772 270° West 313 360 25,900 2,439 Climbing Salt Lake Center
Mon 07:29:53 PM 40.8425 -113.3917 269° West 312 359 30,000 878 Climbing Salt Lake Center
Mon 07:30:54 PM 40.8425 -113.5089 270° West 318 366 27,700 -683 Descending Salt Lake Center
Mon 07:31:56 PM 40.8431 -113.6272 270° West 321 369 28,600 732 Climbing Salt Lake Center
Mon 07:32:57 PM 40.8431 -113.7461 270° West 323 372 29,200 537 Climbing Salt Lake Center
Mon 07:33:59 PM 40.8403 -113.8928 269° West 332 382 29,700 439 Climbing Salt Lake Center
Mon 07:35:00 PM 40.8408 -114.0178 270° West 339 390 30,100 390 Climbing Salt Lake Center
Mon 07:36:02 PM 40.8403 -114.1442 270° West 343 395 30,500 488 Climbing Salt Lake Center
Mon 07:37:03 PM 40.8392 -114.2736 269° West 351 404 31,100 585 Climbing Salt Lake Center
Mon 07:38:05 PM 40.8375 -114.4044 269° West 356 410 31,700 435 Climbing Salt Lake Center
Mon 07:39:07 PM 40.8364 -114.5317 269° West 352 405 32,000 146 Climbing Salt Lake Center
Mon 07:40:08 PM 40.8333 -114.6817 269° West 361 415 32,000  Level Salt Lake Center
Mon 07:41:10 PM 40.8261 -114.8128 266° West 371 427 32,000  Level Salt Lake Center
Mon 07:42:11 PM 40.8094 -114.9647 262° West 374 430 32,000  Level Salt Lake Center
Mon 07:43:13 PM 40.7950 -115.0881 261° West 361 415 32,000  Level Salt Lake Center
Mon 07:44:14 PM 40.7794 -115.2097 260° West 354 407 32,000  Level Salt Lake Center
Mon 07:45:16 PM 40.7639 -115.3467 262° West 341 392 32,000  Level Salt Lake Center
Mon 07:46:17 PM 40.7489 -115.4636 260° West 338 389 32,000  Level Salt Lake Center
Mon 07:47:19 PM 40.7356 -115.5994 263° West 335 386 32,000  Level Salt Lake Center
Mon 07:48:20 PM 40.7206 -115.7169 260° West 339 390 32,000  Level Salt Lake Center
Mon 07:49:22 PM 40.7033 -115.8583 261° West 346 398 32,000  Level Salt Lake Center
Mon 07:50:23 PM 40.6889 -115.9778 261° West 347 399 32,000  Level Salt Lake Center
Mon 07:51:25 PM 40.6742 -116.0989 261° West 349 402 32,000  Level Salt Lake Center
Mon 07:52:26 PM 40.6567 -116.2403 261° West 351 404 32,000  Level Salt Lake Center
Mon 07:53:28 PM 40.6406 -116.3619 260° West 352 405 32,000  Level Salt Lake Center
Mon 07:54:29 PM 40.6231 -116.5072 261° West 359 413 32,000  Level Salt Lake Center
Mon 07:55:31 PM 40.6072 -116.6292 260° West 356 410 32,000  Level Salt Lake Center
Mon 07:56:33 PM 40.5883 -116.7708 260° West 355 409 32,000  Level Salt Lake Center
Mon 07:57:34 PM 40.5736 -116.8900 261° West 351 404 32,000  Level Salt Lake Center
Mon 07:58:36 PM 40.5425 -117.0258 253° West 353 406 32,000  Level Salt Lake Center
Mon 07:59:37 PM 40.5117 -117.1414 251° West 355 409 32,000  Level Salt Lake Center
Mon 08:00:39 PM 40.4758 -117.2769 251° West 354 407 32,000  Level Salt Lake Center
Mon 08:01:40 PM 40.4453 -117.3933 251° West 354 407 32,000  Level Salt Lake Center
Mon 08:02:42 PM 40.4153 -117.5108 251° West 356 410 32,000  Level Salt Lake Center
Mon 08:03:43 PM 40.3772 -117.6475 250° West 358 412 32,000  Level Salt Lake Center
Mon 08:03:58 PM 40.3728 -117.6661 253° West 355 409 32,000  Level Oakland Center
Mon 08:04:45 PM 40.3469 -117.7642 251° West 354 407 32,000  Level Salt Lake Center
Mon 08:06:01 PM 40.3050 -117.9208 251° West 356 410 32,000  Level Oakland Center
Mon 08:07:02 PM 40.2706 -118.0472 250° West 356 410 32,000  Level Oakland Center
Mon 08:08:03 PM 40.2369 -118.1689 250° West 356 410 32,000  Level Oakland Center
Mon 08:09:05 PM 40.2039 -118.2900 250° West 355 409 32,000  Level Oakland Center
Mon 08:10:06 PM 40.1703 -118.4119 250° West 356 410 32,000  Level Oakland Center
Mon 08:11:07 PM 40.1369 -118.5325 250° West 354 407 32,000  Level Oakland Center
Mon 08:12:08 PM 40.0842 -118.6736 244° Southwest 366 421 32,000  Level Oakland Center
Mon 08:13:10 PM 40.0358 -118.7911 242° Southwest 368 423 32,000  Level Oakland Center
Mon 08:14:11 PM 39.9856 -118.9061 240° Southwest 368 423 32,000  Level Oakland Center
Mon 08:15:12 PM 39.9367 -119.0222 241° Southwest 367 422 32,000  Level Oakland Center
Mon 08:16:13 PM 39.8872 -119.1375 241° Southwest 368 423 32,000  Level Oakland Center
Mon 08:17:14 PM 39.8378 -119.2528 241° Southwest 368 423 32,000  Level Oakland Center
Mon 08:18:16 PM 39.7878 -119.3669 240° Southwest 365 420 32,000  Level Oakland Center
Mon 08:19:17 PM 39.7378 -119.4833 241° Southwest 369 425 32,000 -393 Level Oakland Center
Mon 08:20:18 PM 39.6922 -119.5964 242° Southwest 359 413 31,200 -984 Descending Oakland Center
Mon 08:21:19 PM 39.6289 -119.7400 240° Southwest 381 438 30,000 -885 Descending Oakland Center
Mon 08:22:20 PM 39.5778 -119.8575 241° Southwest 373 429 29,400 -780 Descending Oakland Center
Mon 08:23:22 PM 39.5250 -119.9758 240° Southwest 378 435 28,400 -976 Descending Oakland Center
Mon 08:24:23 PM 39.4744 -120.0944 241° Southwest 377 434 27,400 -984 Descending Oakland Center
Mon 08:25:24 PM 39.4250 -120.2011 239° Southwest 372 428 26,400 -1,279 Descending Oakland Center
Mon 08:26:25 PM 39.3781 -120.3092 241° Southwest 350 403 24,800 -1,463 Descending Oakland Center
Mon 08:27:27 PM 39.3319 -120.4131 240° Southwest 337 388 23,400 -1,561 Descending Oakland Center
Mon 08:28:28 PM 39.2742 -120.5406 240° Southwest 343 395 21,600 -1,672 Descending Oakland Center
Mon 08:29:29 PM 39.2278 -120.6469 241° Southwest 344 396 20,000 -1,525 Descending Oakland Center
Mon 08:30:30 PM 39.1831 -120.7461 240° Southwest 329 379 18,500 -1,574 Descending Oakland Center
Mon 08:31:31 PM 39.1394 -120.8419 240° Southwest 316 364 16,800 -1,574 Descending Oakland Center
Mon 08:32:32 PM 39.0969 -120.9347 239° Southwest 307 353 15,300 -1,463 Descending Oakland Center
Mon 08:33:34 PM 39.0556 -121.0272 240° Southwest 301 346 13,800 -1,463 Descending Oakland Center
Mon 08:34:35 PM 39.0142 -121.1175 239° Southwest 297 342 12,300 -1,596 Descending Oakland Center
Mon 08:35:08 PM 38.9833 -121.1833 239° Southwest 293 337 11,300 -1,806 Descending Northern Cal TRACON
Mon 08:36:08 PM 38.9667 -121.2833 258° West 284 327 9,500 -1,842 Descending Northern Cal TRACON
Mon 08:37:02 PM 38.9667 -121.3667 270° West 276 318 7,800 -1,950 Descending Northern Cal TRACON
Mon 08:38:08 PM 38.9333 -121.4667 247° West 269 310 5,600 -1,800 Descending Northern Cal TRACON
Mon 08:39:02 PM 38.9000 -121.5333 237° Southwest 262 302 4,200 -1,300 Descending Northern Cal TRACON
Mon 08:40:08 PM 38.8667 -121.6167 243° Southwest 248 285 3,000 -720 Descending Northern Cal TRACON
Mon 08:40:42 PM 38.8506 -121.6619 245° Southwest 257 296 3,000  Level Oakland Center
Mon 08:41:43 PM 38.7872 -121.6747 189° South 251 289 3,000  Level Oakland Center
Mon 08:42:44 PM 38.7258 -121.6644 173° South 231 266 3,000  Level Oakland Center
Mon 08:43:45 PM 38.6650 -121.6522 171° South 225 259 3,000  Level Oakland Center
Mon 08:44:46 PM 38.6078 -121.6392 170° South 215 247 3,000 -72 Level Oakland Center
Mon 08:45:08 PM 38.5833 -121.6167 144° Southeast 213 245 2,900 -1,026 Descending Northern Cal TRACON
Mon 08:46:02 PM 38.6167 -121.5833 38° Northeast 174 200 1,700 -1,200 Descending Northern Cal TRACON
Mon 08:47:08 PM 38.6667 -121.5833 360° North 129 148 500 -1,091 Descending Northern Cal TRACON

Login

Don't have an account? Register now (free) for customized features, flight alerts, and more!